Time;durP1;ratioP1;P1;durP2;ratioP2;P2;SDS_P1;SDS_P2;PMS_P1;PMS_P2;Temp;Humidity;BMP_temperature;BMP_pressure;BME280_temperature;BME280_humidity;BME280_pressure;Samples;Min_cycle;Max_cycle;Signal;HPM_P1;HPM_P2
2021/11/12 00:03:47;;;;;;;39.23;21.70;;;10.90;99.90;;;;;;5150786;27;40604;-76
2021/11/12 00:14:35;;;;;;;39.97;21.20;;;10.80;99.90;;;;;;5126785;27;49460;-76
2021/11/12 00:17:02;;;;;;;39.90;23.77;;;10.80;99.90;;;;;;5124779;27;37477;-76
2021/11/12 00:19:28;;;;;;;41.53;23.23;;;10.80;99.90;;;;;;5130420;27;48987;-76
2021/11/12 00:21:54;;;;;;;37.47;22.17;;;10.90;99.90;;;;;;5124201;27;37518;-76
2021/11/12 00:24:21;;;;;;;36.60;21.53;;;10.90;99.90;;;;;;5127499;27;37621;-76
2021/11/12 00:26:47;;;;;;;35.90;20.93;;;10.90;99.90;;;;;;5110509;27;37096;-76
2021/11/12 00:29:14;;;;;;;34.30;22.27;;;10.90;99.90;;;;;;5131990;27;38782;-75
2021/11/12 00:37:04;;;;;;;41.40;23.60;;;10.90;99.90;;;;;;5125030;27;39020;-76
2021/11/12 00:42:07;;;;;;;40.17;23.00;;;10.80;99.90;;;;;;5133294;27;37468;-76
2021/11/12 00:44:42;;;;;;;36.60;21.10;;;10.80;99.90;;;;;;5122235;27;47480;-76
2021/11/12 00:50:35;;;;;;;44.42;24.25;;;10.80;99.90;;;;;;5104008;27;38104;-76
2021/11/12 00:55:22;;;;;;;38.40;23.17;;;10.80;99.90;;;;;;5137457;27;40619;-76
2021/11/12 00:57:50;;;;;;;38.20;21.98;;;10.80;99.90;;;;;;5111016;27;37486;-76
2021/11/12 01:00:17;;;;;;;39.30;23.37;;;10.80;99.90;;;;;;5127624;27;38893;-75
2021/11/12 01:02:44;;;;;;;45.13;25.90;;;10.70;99.90;;;;;;5108741;27;37806;-76
2021/11/12 01:05:11;;;;;;;46.73;25.37;;;10.70;99.90;;;;;;5127643;27;38454;-75
2021/11/12 01:07:39;;;;;;;40.80;25.50;;;10.70;99.90;;;;;;5142585;27;37689;-75
2021/11/12 01:10:08;;;;;;;40.67;24.00;;;10.60;99.90;;;;;;5122756;27;37217;-75
2021/11/12 01:12:36;;;;;;;44.57;25.40;;;10.70;99.90;;;;;;5122420;27;38043;-75
2021/11/12 01:15:08;;;;;;;44.53;26.03;;;10.70;99.90;;;;;;5108900;27;39167;-76
2021/11/12 01:17:34;;;;;;;36.33;23.07;;;10.70;99.90;;;;;;5128474;27;47801;-75
2021/11/12 01:20:03;;;;;;;41.83;23.53;;;10.60;99.90;;;;;;5120583;27;37033;-75
2021/11/12 01:22:29;;;;;;;41.53;24.23;;;10.70;99.90;;;;;;5117798;27;48145;-76
2021/11/12 01:24:55;;;;;;;39.77;25.07;;;10.60;99.90;;;;;;5127265;27;37987;-76
2021/11/12 01:27:22;;;;;;;45.40;25.43;;;10.60;99.90;;;;;;5125451;27;40138;-76
2021/11/12 01:29:48;;;;;;;41.40;24.20;;;10.60;99.90;;;;;;5127763;27;39185;-76
2021/11/12 01:32:21;;;;;;;42.20;24.27;;;10.60;99.90;;;;;;5149919;27;37401;-76
2021/11/12 01:34:50;;;;;;;41.83;22.53;;;10.60;99.90;;;;;;5123608;27;39853;-76
2021/11/12 01:37:19;;;;;;;40.70;22.63;;;10.60;99.90;;;;;;5142228;27;36647;-77
2021/11/12 01:39:51;;;;;;;39.40;22.70;;;10.60;99.90;;;;;;5125191;27;38819;-76
2021/11/12 01:42:19;;;;;;;45.77;23.93;;;10.60;99.90;;;;;;5126714;27;39145;-76
2021/11/12 01:44:54;;;;;;;45.43;25.00;;;10.60;99.90;;;;;;5107409;27;40215;-76
2021/11/12 01:49:54;;;;;;;45.57;22.87;;;10.50;99.90;;;;;;5127803;27;39755;-74
2021/11/12 01:52:26;;;;;;;41.43;22.83;;;10.50;99.90;;;;;;5118018;27;36795;-76
2021/11/12 01:55:01;;;;;;;46.22;25.40;;;10.50;99.90;;;;;;5150837;27;37501;-76
2021/11/12 01:59:55;;;;;;;44.20;22.57;;;10.50;99.90;;;;;;5135219;27;39261;-76
2021/11/12 02:02:23;;;;;;;42.20;23.27;;;10.50;99.90;;;;;;5121255;27;36503;-77
2021/11/12 02:04:50;;;;;;;40.43;23.07;;;10.40;99.90;;;;;;5119224;27;38660;-76
2021/11/12 02:07:18;;;;;;;41.87;24.37;;;10.40;99.90;;;;;;5116148;27;37247;-75
2021/11/12 02:09:45;;;;;;;42.77;22.20;;;10.40;99.90;;;;;;5121481;27;36787;-75
2021/11/12 02:12:21;;;;;;;39.03;22.93;;;10.40;99.90;;;;;;5117367;27;38106;-76
2021/11/12 02:14:48;;;;;;;41.60;22.70;;;10.40;99.90;;;;;;5106591;27;38224;-74
2021/11/12 02:17:19;;;;;;;46.37;24.90;;;10.40;99.90;;;;;;5105281;27;37256;-76
2021/11/12 02:19:50;;;;;;;41.87;23.27;;;10.40;99.90;;;;;;5111467;27;37140;-76
2021/11/12 02:22:18;;;;;;;40.60;23.93;;;10.30;99.90;;;;;;5135985;27;37155;-74
2021/11/12 02:24:50;;;;;;;40.83;24.37;;;10.30;99.90;;;;;;5140016;27;39529;-76
2021/11/12 02:27:19;;;;;;;46.35;26.00;;;10.30;99.90;;;;;;5118583;27;37549;-74
2021/11/12 02:29:49;;;;;;;43.03;23.87;;;10.30;99.90;;;;;;5121884;27;38403;-76
2021/11/12 02:32:27;;;;;;;40.90;23.30;;;10.30;99.90;;;;;;5133711;27;37621;-76
2021/11/12 02:35:01;;;;;;;45.47;24.13;;;10.30;99.90;;;;;;5132074;27;38869;-76
2021/11/12 02:37:31;;;;;;;40.40;23.67;;;10.30;99.90;;;;;;5126531;27;36868;-76
2021/11/12 02:39:58;;;;;;;46.37;25.17;;;10.30;99.90;;;;;;5129729;27;43586;-75
2021/11/12 02:42:26;;;;;;;44.20;23.47;;;10.30;99.90;;;;;;5137337;27;37534;-75
2021/11/12 02:44:52;;;;;;;47.30;24.37;;;10.30;99.90;;;;;;5111329;27;39928;-75
2021/11/12 02:47:20;;;;;;;43.67;24.20;;;10.20;99.90;;;;;;5111647;27;38768;-75
2021/11/12 02:49:47;;;;;;;50.73;26.67;;;10.20;99.90;;;;;;5123133;27;38392;-75
2021/11/12 02:52:18;;;;;;;51.13;25.13;;;10.20;99.90;;;;;;5119651;27;38013;-74
2021/11/12 02:54:45;;;;;;;46.90;25.23;;;10.20;99.90;;;;;;5116447;27;38092;-75
2021/11/12 02:57:11;;;;;;;46.83;25.17;;;10.20;99.90;;;;;;5123845;27;39115;-75
2021/11/12 02:59:38;;;;;;;52.37;25.70;;;10.10;99.90;;;;;;5118637;27;37651;-76
2021/11/12 03:02:07;;;;;;;56.03;26.87;;;10.10;99.90;;;;;;5121730;27;37472;-76
2021/11/12 03:04:33;;;;;;;48.13;25.00;;;10.10;99.90;;;;;;5103317;27;37962;-76
2021/11/12 03:07:00;;;;;;;43.83;25.10;;;10.10;99.90;;;;;;5103958;27;37219;-76
2021/11/12 03:09:29;;;;;;;52.03;26.63;;;10.10;99.90;;;;;;5111253;27;37203;-74
2021/11/12 03:11:57;;;;;;;52.77;25.93;;;10.10;99.90;;;;;;5119831;27;36281;-76
2021/11/12 03:14:23;;;;;;;44.63;24.80;;;10.10;99.90;;;;;;5121505;27;39830;-74
2021/11/12 03:16:50;;;;;;;48.50;25.07;;;10.10;99.90;;;;;;5122651;27;38440;-74
2021/11/12 03:19:19;;;;;;;50.27;25.57;;;10.10;99.90;;;;;;5122104;27;38770;-76
2021/11/12 03:21:47;;;;;;;46.33;25.20;;;10.10;99.90;;;;;;5122808;27;38845;-75
2021/11/12 03:24:27;;;;;;;45.50;25.87;;;10.00;99.90;;;;;;5121728;27;38323;-74
2021/11/12 03:27:08;;;;;;;46.87;25.00;;;10.00;99.90;;;;;;5131114;27;38662;-73
2021/11/12 05:43:45;;;;;;;69.40;39.67;;;7.50;99.90;;;;;;5142147;27;49279;-74
2021/11/12 05:52:15;;;;;;;77.70;44.47;;;7.40;99.90;;;;;;5141464;27;37690;-74
2021/11/12 05:57:26;;;;;;;94.00;46.83;;;7.30;99.90;;;;;;5138949;27;39899;-73
2021/11/12 05:59:52;;;;;;;89.37;46.77;;;7.20;99.90;;;;;;5130245;27;37004;-74
2021/11/12 06:02:18;;;;;;;97.30;48.37;;;7.20;99.90;;;;;;5124284;27;37332;-74
2021/11/12 06:04:45;;;;;;;104.97;50.83;;;7.20;99.90;;;;;;5142988;27;37505;-74
2021/11/12 06:07:11;;;;;;;99.63;51.30;;;7.10;99.90;;;;;;5125202;27;37877;-74
2021/11/12 06:09:37;;;;;;;105.83;52.30;;;7.10;99.90;;;;;;5130887;27;40989;-74
2021/11/12 06:12:04;;;;;;;108.07;51.73;;;7.10;99.90;;;;;;5135637;27;38066;-74
2021/11/12 06:14:30;;;;;;;105.63;51.67;;;7.10;99.90;;;;;;5128425;27;37119;-74
2021/11/12 06:16:56;;;;;;;100.40;50.40;;;7.10;99.90;;;;;;5148982;27;37013;-74
2021/11/12 06:19:23;;;;;;;110.70;53.10;;;7.00;99.90;;;;;;5134165;27;37185;-73
2021/11/12 06:21:49;;;;;;;98.40;50.63;;;7.00;99.90;;;;;;5136738;27;37611;-74
2021/11/12 06:24:16;;;;;;;111.33;53.10;;;7.00;99.90;;;;;;5156843;27;37406;-74
2021/11/12 06:26:44;;;;;;;109.63;54.13;;;7.00;99.90;;;;;;5131125;27;37848;-74
2021/11/12 06:29:12;;;;;;;120.67;55.07;;;7.00;99.90;;;;;;5130938;27;38529;-74
2021/11/12 06:31:38;;;;;;;135.97;57.87;;;7.00;99.90;;;;;;5147261;27;49686;-74
2021/11/12 06:34:04;;;;;;;124.77;58.77;;;7.00;99.90;;;;;;5151765;27;36560;-74
2021/11/12 06:36:30;;;;;;;125.83;56.07;;;7.00;99.90;;;;;;5131691;27;39879;-74
2021/11/12 06:38:57;;;;;;;127.23;58.87;;;7.10;99.90;;;;;;5146796;27;38537;-74
2021/11/12 06:41:38;;;;;;;121.33;55.33;;;7.00;99.90;;;;;;5119349;27;37355;-74
2021/11/12 06:44:26;;;;;;;144.43;60.50;;;7.00;99.90;;;;;;5121245;27;36899;-75
2021/11/12 06:52:30;;;;;;;137.50;59.47;;;7.00;99.90;;;;;;5131912;27;49613;-74
2021/11/12 06:55:01;;;;;;;131.63;59.13;;;7.00;99.90;;;;;;5115513;27;37539;-72
2021/11/12 06:57:27;;;;;;;144.40;57.20;;;6.90;99.90;;;;;;5150204;27;38286;-71
2021/11/12 06:59:54;;;;;;;121.70;53.67;;;6.90;99.90;;;;;;5139591;27;37899;-73
2021/11/12 07:02:25;;;;;;;110.53;53.47;;;6.90;99.90;;;;;;5126063;27;37248;-73
2021/11/12 07:04:51;;;;;;;135.23;57.13;;;6.90;99.90;;;;;;5130503;27;36332;-73
2021/11/12 07:07:17;;;;;;;144.07;62.30;;;6.90;99.90;;;;;;5133045;27;39119;-72
2021/11/12 07:09:46;;;;;;;121.57;55.10;;;6.90;99.90;;;;;;5128669;27;37774;-72
2021/11/12 07:12:14;;;;;;;126.53;55.90;;;6.90;99.90;;;;;;5132001;27;38291;-72
2021/11/12 07:14:42;;;;;;;139.20;59.90;;;6.80;99.90;;;;;;5136860;27;37432;-72
2021/11/12 07:17:08;;;;;;;141.50;60.47;;;6.90;99.90;;;;;;5133809;27;38519;-72
2021/11/12 07:19:34;;;;;;;133.10;60.00;;;6.80;99.90;;;;;;5144693;27;37552;-72
2021/11/12 07:22:01;;;;;;;122.63;55.60;;;6.90;99.90;;;;;;5133757;27;37714;-72
2021/11/12 07:24:28;;;;;;;142.07;62.93;;;6.80;99.90;;;;;;5132032;27;38009;-73
2021/11/12 07:26:54;;;;;;;151.37;62.50;;;6.80;99.90;;;;;;5116167;27;37953;-73
2021/11/12 07:29:23;;;;;;;142.10;63.43;;;6.80;99.90;;;;;;5116118;27;38472;-73
2021/11/12 07:31:50;;;;;;;148.37;64.63;;;6.90;99.90;;;;;;5117586;27;38332;-72
2021/11/12 07:34:16;;;;;;;144.50;63.17;;;6.90;99.90;;;;;;5124787;27;37627;-73
2021/11/12 07:36:52;;;;;;;149.53;63.30;;;6.80;99.90;;;;;;5112846;27;38868;-75
2021/11/12 07:39:24;;;;;;;154.83;65.47;;;6.80;99.90;;;;;;5143415;27;38578;-72
2021/11/12 07:47:14;;;;;;;138.40;65.00;;;6.80;99.90;;;;;;5141539;27;40569;-74
2021/11/12 07:49:52;;;;;;;142.23;63.10;;;6.80;99.90;;;;;;5133676;27;39682;-75
2021/11/12 07:52:21;;;;;;;145.63;65.10;;;6.70;99.90;;;;;;5128855;27;37253;-74
2021/11/12 07:54:48;;;;;;;141.47;63.37;;;6.70;99.90;;;;;;5149586;27;37137;-74
2021/11/12 07:57:14;;;;;;;139.23;66.60;;;6.70;99.90;;;;;;5151524;27;39043;-73
2021/11/12 07:59:41;;;;;;;146.10;69.07;;;6.70;99.90;;;;;;5152304;27;38554;-74
2021/11/12 08:02:08;;;;;;;144.97;66.90;;;6.70;99.90;;;;;;5159386;27;39676;-74
2021/11/12 08:04:36;;;;;;;152.20;68.93;;;6.70;99.90;;;;;;5136197;27;36783;-74
2021/11/12 08:07:02;;;;;;;150.20;69.97;;;6.70;99.90;;;;;;5140408;27;37519;-74
2021/11/12 08:12:39;;;;;;;179.53;73.57;;;6.60;99.90;;;;;;5123287;27;39545;-74
2021/11/12 08:17:41;;;;;;;178.33;75.17;;;6.60;99.90;;;;;;5156909;27;49222;-74
2021/11/12 08:22:41;;;;;;;204.23;79.23;;;6.70;99.90;;;;;;5151868;27;37493;-73
2021/11/12 08:41:18;;;;;;;209.20;77.70;;;6.50;99.90;;;;;;5152408;27;39214;-74
2021/11/12 08:43:52;;;;;;;220.80;80.47;;;6.50;99.90;;;;;;5147697;27;37504;-73
2021/11/12 08:49:32;;;;;;;213.63;76.43;;;6.60;99.90;;;;;;5083836;28;39194;-74
2021/11/12 08:52:00;;;;;;;211.90;76.87;;;6.60;99.90;;;;;;5123649;27;37813;-74
2021/11/12 08:54:31;;;;;;;205.10;76.73;;;6.60;99.90;;;;;;5135327;27;37384;-71
2021/11/12 08:56:58;;;;;;;193.33;74.70;;;6.70;99.90;;;;;;5143860;27;37444;-72
2021/11/12 08:59:25;;;;;;;193.57;73.63;;;6.70;99.90;;;;;;5132897;27;37705;-73
2021/11/12 09:01:51;;;;;;;183.40;72.10;;;6.70;99.90;;;;;;5150216;27;38277;-73
2021/11/12 09:04:18;;;;;;;162.93;66.20;;;6.70;99.90;;;;;;5151448;27;37805;-73
2021/11/12 09:06:45;;;;;;;163.17;70.10;;;6.70;99.90;;;;;;5138279;27;36179;-73
2021/11/12 09:09:12;;;;;;;159.17;65.87;;;6.80;99.90;;;;;;5169833;27;40180;-73
2021/11/12 09:11:39;;;;;;;162.93;67.87;;;6.80;99.90;;;;;;5149809;27;37375;-72
2021/11/12 09:14:10;;;;;;;146.33;62.63;;;6.80;99.90;;;;;;5154161;27;38715;-72
2021/11/12 09:16:41;;;;;;;127.13;58.73;;;6.90;99.90;;;;;;5132177;27;37340;-72
2021/11/12 09:19:08;;;;;;;137.03;59.97;;;6.90;99.90;;;;;;5128361;27;39159;-72
2021/11/12 09:21:34;;;;;;;134.73;59.67;;;6.90;99.90;;;;;;5134018;27;39216;-72
2021/11/12 09:24:02;;;;;;;132.00;57.03;;;6.90;99.90;;;;;;5135358;27;37380;-74
2021/11/12 09:26:28;;;;;;;126.50;55.90;;;6.90;99.90;;;;;;5121816;27;48078;-74
2021/11/12 09:28:55;;;;;;;112.53;54.77;;;6.80;99.90;;;;;;5139470;27;40144;-74
2021/11/12 09:31:21;;;;;;;111.43;53.93;;;6.90;99.90;;;;;;5140736;27;38349;-74
2021/11/12 09:33:47;;;;;;;108.17;53.53;;;7.00;99.90;;;;;;5132113;27;37654;-74
2021/11/12 09:36:13;;;;;;;116.33;54.80;;;7.10;99.90;;;;;;5128603;27;36460;-74
2021/11/12 09:38:41;;;;;;;100.53;50.90;;;7.10;99.90;;;;;;5137811;27;39896;-73
2021/11/12 09:41:08;;;;;;;107.50;51.87;;;7.10;99.90;;;;;;5132982;27;37224;-74
2021/11/12 09:43:35;;;;;;;95.53;50.27;;;7.20;99.90;;;;;;5134670;27;37262;-73
2021/11/12 09:46:04;;;;;;;93.97;48.60;;;7.30;99.90;;;;;;5127280;27;36492;-73
2021/11/12 09:48:30;;;;;;;94.87;50.90;;;7.40;99.90;;;;;;5117065;27;37762;-73
2021/11/12 09:50:57;;;;;;;99.20;50.87;;;7.40;99.90;;;;;;5141128;27;39418;-73
2021/11/12 09:53:24;;;;;;;96.77;52.13;;;7.50;99.90;;;;;;5136279;27;36636;-73
2021/11/12 09:55:53;;;;;;;95.97;51.23;;;7.50;99.90;;;;;;5144176;27;36586;-73
2021/11/12 09:58:19;;;;;;;102.70;53.07;;;7.50;99.90;;;;;;5129992;27;39781;-73
2021/11/12 10:00:47;;;;;;;97.77;52.03;;;7.50;99.90;;;;;;5123408;27;38232;-73
2021/11/12 10:03:13;;;;;;;100.60;50.67;;;7.50;99.90;;;;;;5119120;27;36982;-73
2021/11/12 10:05:46;;;;;;;93.90;50.73;;;7.50;99.90;;;;;;5148353;27;39764;-73
2021/11/12 10:08:26;;;;;;;94.33;51.00;;;7.60;99.90;;;;;;5152636;27;38887;-73
2021/11/12 10:11:07;;;;;;;91.60;51.73;;;7.70;99.90;;;;;;5155540;27;39185;-73
2021/11/12 10:13:41;;;;;;;90.23;49.40;;;7.80;99.90;;;;;;5156241;27;49429;-72
2021/11/12 10:19:02;;;;;;;97.93;49.40;;;8.10;99.90;;;;;;5161771;27;38292;-74
2021/11/12 10:21:41;;;;;;;93.17;51.47;;;8.10;99.90;;;;;;5145572;27;48647;-73
2021/11/12 10:24:15;;;;;;;95.20;50.37;;;8.10;99.90;;;;;;5146984;27;38557;-73
2021/11/12 10:26:48;;;;;;;91.37;48.70;;;8.10;99.90;;;;;;5134694;27;36696;-74
2021/11/12 10:29:24;;;;;;;89.80;48.03;;;8.20;99.90;;;;;;5135108;27;38756;-73
2021/11/12 10:31:56;;;;;;;84.13;47.53;;;8.20;99.90;;;;;;5157051;27;38388;-73
2021/11/12 10:34:29;;;;;;;80.05;45.83;;;8.30;99.90;;;;;;5138954;27;37129;-71
2021/11/12 10:36:55;;;;;;;81.40;44.87;;;8.40;99.90;;;;;;5129284;27;37897;-72
2021/11/12 10:39:45;;;;;;;73.27;43.03;;;8.50;99.90;;;;;;5164043;27;39865;-72
2021/11/12 10:42:20;;;;;;;75.30;41.60;;;8.60;99.90;;;;;;5165401;27;38388;-72
2021/11/12 10:44:54;;;;;;;67.57;39.87;;;8.90;99.90;;;;;;5158348;27;38674;-72
2021/11/12 10:47:21;;;;;;;64.67;38.77;;;9.10;99.90;;;;;;5153146;27;37011;-72
2021/11/12 10:49:49;;;;;;;60.03;35.57;;;9.20;99.90;;;;;;5155505;27;38633;-72
2021/11/12 10:52:22;;;;;;;60.17;36.03;;;9.30;99.90;;;;;;5127614;27;38141;-72
2021/11/12 10:57:32;;;;;;;57.20;33.63;;;9.60;99.90;;;;;;5155585;27;38224;-73
2021/11/12 11:00:08;;;;;;;45.83;28.33;;;9.70;99.90;;;;;;5126778;27;39119;-72
2021/11/12 11:02:42;;;;;;;46.57;28.93;;;9.80;99.90;;;;;;5109375;27;48241;-72
2021/11/12 11:05:30;;;;;;;49.63;29.27;;;9.90;99.90;;;;;;5108528;27;37851;-72
2021/11/12 11:08:05;;;;;;;43.90;28.53;;;10.00;99.90;;;;;;5110795;27;36590;-73
2021/11/12 11:10:34;;;;;;;47.47;29.97;;;9.90;99.90;;;;;;5113237;27;48859;-73
2021/11/12 11:13:11;;;;;;;46.13;29.43;;;9.80;99.90;;;;;;5116240;27;39286;-74
2021/11/12 11:15:44;;;;;;;44.73;27.53;;;9.90;99.90;;;;;;5105387;27;47322;-73
2021/11/12 11:18:19;;;;;;;38.63;27.67;;;9.90;99.90;;;;;;5116737;27;37209;-73
2021/11/12 11:20:56;;;;;;;40.17;27.80;;;10.10;99.90;;;;;;5115144;27;38749;-72
2021/11/12 11:23:23;;;;;;;41.33;27.17;;;10.00;99.90;;;;;;5106142;27;39265;-73
2021/11/12 11:26:02;;;;;;;44.70;27.67;;;10.10;99.90;;;;;;5111999;27;39236;-73
2021/11/12 11:28:31;;;;;;;42.87;27.03;;;10.20;99.90;;;;;;5115929;27;49102;-73
2021/11/12 11:31:07;;;;;;;47.53;28.27;;;10.20;99.90;;;;;;5108140;27;37811;-73
2021/11/12 11:33:39;;;;;;;40.37;26.03;;;10.20;99.90;;;;;;5115660;27;47235;-74
2021/11/12 11:36:06;;;;;;;44.17;26.90;;;10.20;99.90;;;;;;5111545;27;39958;-73
2021/11/12 11:38:34;;;;;;;43.90;28.33;;;10.20;99.90;;;;;;5111996;27;37989;-73
2021/11/12 11:41:04;;;;;;;40.03;25.93;;;10.20;99.90;;;;;;5110068;27;39942;-73
2021/11/12 11:43:31;;;;;;;40.20;25.67;;;10.20;99.90;;;;;;5113514;27;48377;-73
2021/11/12 11:46:10;;;;;;;40.07;26.23;;;10.30;99.90;;;;;;5113107;27;39027;-71
2021/11/12 11:48:42;;;;;;;43.70;26.33;;;10.30;99.90;;;;;;5111559;27;47271;-73
2021/11/12 11:51:09;;;;;;;38.80;25.93;;;10.40;99.90;;;;;;5109949;27;39253;-72
2021/11/12 11:53:42;;;;;;;42.83;24.93;;;10.40;99.90;;;;;;5110972;27;38752;-74
2021/11/12 11:56:16;;;;;;;39.30;24.33;;;10.50;99.90;;;;;;5116447;27;38221;-72
2021/11/12 11:58:43;;;;;;;35.97;25.17;;;10.50;99.90;;;;;;5116739;27;38179;-72
2021/11/12 12:01:19;;;;;;;44.23;26.13;;;10.40;99.90;;;;;;5111483;27;39997;-72
2021/11/12 12:03:51;;;;;;;42.63;26.23;;;10.50;99.90;;;;;;5111623;27;37888;-72
2021/11/12 12:06:19;;;;;;;41.17;26.40;;;10.50;99.90;;;;;;5115581;27;38430;-73
2021/11/12 12:08:49;;;;;;;38.73;25.77;;;10.40;99.90;;;;;;5116289;27;38152;-73
2021/11/12 12:11:20;;;;;;;40.93;25.60;;;10.50;99.90;;;;;;5119404;27;38962;-72
2021/11/12 12:14:07;;;;;;;38.40;25.40;;;10.60;99.90;;;;;;5119341;27;38713;-72
2021/11/12 12:16:33;;;;;;;42.27;26.07;;;10.60;99.90;;;;;;5123922;27;48795;-72
2021/11/12 12:19:00;;;;;;;42.50;25.17;;;10.60;99.90;;;;;;5119958;27;38374;-73
2021/11/12 12:21:41;;;;;;;34.93;22.43;;;10.70;99.90;;;;;;5119993;27;39051;-73
2021/11/12 12:33:49;;;;;;;29.20;17.90;;;11.00;99.90;;;;;;5118502;27;50129;-73
2021/11/12 13:25:55;;;;;;;29.92;18.27;;;11.90;99.90;;;;;;5095109;27;49218;-75
2021/11/12 13:28:31;;;;;;;26.90;18.38;;;11.80;99.90;;;;;;5088133;27;37342;-75
2021/11/12 13:31:13;;;;;;;27.20;16.33;;;11.90;99.90;;;;;;5129199;27;39479;-75
2021/11/12 13:33:39;;;;;;;29.08;16.40;;;11.90;99.90;;;;;;5122529;27;46881;-74
2021/11/12 13:36:08;;;;;;;23.30;15.00;;;12.00;99.90;;;;;;5126485;27;39294;-75
2021/11/12 13:38:44;;;;;;;22.92;15.77;;;12.00;99.90;;;;;;5134171;27;37573;-74
2021/11/12 13:41:12;;;;;;;21.70;14.23;;;12.00;99.90;;;;;;5122061;27;38266;-74
2021/11/12 13:43:41;;;;;;;24.45;15.23;;;12.10;99.90;;;;;;5112902;27;40111;-74
2021/11/12 13:46:08;;;;;;;23.05;15.27;;;12.10;99.90;;;;;;5119799;27;39050;-76
2021/11/12 13:48:53;;;;;;;23.55;14.98;;;12.10;99.90;;;;;;5115306;27;37990;-74
2021/11/12 13:51:31;;;;;;;23.13;14.63;;;12.10;99.90;;;;;;5136671;27;39577;-74
2021/11/12 13:54:02;;;;;;;24.50;14.65;;;12.10;99.90;;;;;;5136146;27;37908;-75
2021/11/12 13:56:32;;;;;;;22.42;15.18;;;12.00;99.90;;;;;;5121296;27;47109;-73
2021/11/12 13:59:11;;;;;;;22.27;15.45;;;12.10;99.90;;;;;;5151666;27;37230;-75
2021/11/12 14:01:39;;;;;;;24.33;15.65;;;12.00;99.90;;;;;;5131100;27;47203;-74
2021/11/12 14:04:28;;;;;;;21.45;14.52;;;12.00;99.90;;;;;;5139393;27;38466;-76
2021/11/12 14:06:56;;;;;;;19.88;13.25;;;12.00;99.90;;;;;;5134945;27;39247;-75
2021/11/12 14:09:26;;;;;;;18.02;13.10;;;12.10;99.90;;;;;;5128897;27;37577;-75
2021/11/12 14:12:06;;;;;;;21.83;12.02;;;12.10;99.90;;;;;;5130495;27;39757;-75
2021/11/12 14:14:33;;;;;;;19.25;11.70;;;12.10;99.90;;;;;;5139139;27;48547;-74
2021/11/12 14:17:21;;;;;;;18.58;11.88;;;12.20;99.90;;;;;;5131537;27;38190;-74
2021/11/12 14:22:34;;;;;;;17.35;12.27;;;12.20;99.90;;;;;;5136468;27;39080;-75
2021/11/12 14:28:25;;;;;;;16.43;10.87;;;12.20;99.90;;;;;;5107011;27;48952;-76
2021/11/12 14:33:45;;;;;;;15.77;10.75;;;12.20;99.90;;;;;;5130730;27;49097;-78
2021/11/12 14:36:27;;;;;;;16.67;11.38;;;12.10;99.90;;;;;;5128260;27;37182;-78
2021/11/12 14:39:01;;;;;;;16.93;10.67;;;12.10;99.90;;;;;;5134542;27;36991;-79
2021/11/12 14:52:23;;;;;;;16.83;9.63;;;12.00;99.90;;;;;;5135160;27;37902;-77
2021/11/12 14:55:06;;;;;;;15.57;9.23;;;11.90;99.90;;;;;;5118630;27;47580;-78
2021/11/12 14:57:38;;;;;;;15.48;9.60;;;11.90;99.90;;;;;;5120155;27;47793;-79
2021/11/12 15:00:15;;;;;;;17.52;10.18;;;11.80;99.90;;;;;;5115378;27;36922;-78
2021/11/12 15:02:41;;;;;;;14.10;8.70;;;11.80;99.90;;;;;;5099130;27;48381;-78
2021/11/12 15:05:10;;;;;;;13.63;8.97;;;11.80;99.90;;;;;;5106995;27;38748;-78
2021/11/12 15:07:40;;;;;;;15.97;8.57;;;11.80;99.90;;;;;;5109140;27;37920;-77
2021/11/12 15:10:12;;;;;;;15.33;9.00;;;11.80;99.90;;;;;;5097235;27;37959;-77
2021/11/12 15:12:39;;;;;;;14.90;9.17;;;11.80;99.90;;;;;;5106351;27;36214;-76
2021/11/12 15:15:06;;;;;;;12.57;8.30;;;11.70;99.90;;;;;;5106013;27;39035;-77
2021/11/12 15:17:32;;;;;;;17.57;8.53;;;11.70;99.90;;;;;;5108973;27;38215;-78
2021/11/12 15:20:00;;;;;;;14.23;8.37;;;11.70;99.90;;;;;;5113448;27;38252;-77
2021/11/12 15:30:40;;;;;;;12.07;8.13;;;11.50;99.90;;;;;;5111884;27;49444;-76
2021/11/12 15:33:13;;;;;;;13.50;8.43;;;11.50;99.90;;;;;;5115635;27;36298;-77
2021/11/12 15:35:40;;;;;;;15.27;8.60;;;11.50;99.90;;;;;;5107160;27;37761;-76
2021/11/12 15:38:45;;;;;;;13.30;8.30;;;11.50;99.90;;;;;;5113668;27;37559;-77
2021/11/12 15:41:04;;;;;;;11.52;8.45;;;11.60;99.90;;;;;;5108161;27;38728;-77
2021/11/12 15:43:41;;;;;;;12.35;8.52;;;11.60;99.90;;;;;;5110332;27;47368;-79
2021/11/12 15:46:20;;;;;;;13.87;8.87;;;11.60;99.90;;;;;;5113626;27;39479;-77
2021/11/12 15:48:47;;;;;;;15.70;9.85;;;11.60;99.90;;;;;;5111694;27;38691;-78
2021/11/12 15:53:58;;;;;;;13.67;9.53;;;11.60;99.90;;;;;;5117370;27;37702;-78
2021/11/12 15:59:09;;;;;;;16.05;11.18;;;11.60;99.90;;;;;;5121702;27;39549;-78
2021/11/12 16:17:38;;;;;;;18.17;11.27;;;10.90;99.90;;;;;;5118632;27;40063;-77
2021/11/12 16:20:25;;;;;;;20.20;12.47;;;11.00;99.90;;;;;;5115731;27;38521;-78
2021/11/12 16:25:46;;;;;;;20.67;12.27;;;11.00;99.90;;;;;;5100601;27;49266;-77
2021/11/12 16:28:19;;;;;;;19.37;11.83;;;11.00;99.90;;;;;;5118986;27;38706;-77
2021/11/12 16:30:53;;;;;;;14.73;11.57;;;11.00;99.90;;;;;;5131102;27;37319;-77
2021/11/12 16:33:20;;;;;;;19.93;12.00;;;11.00;99.90;;;;;;5132180;27;37231;-78
2021/11/12 16:35:46;;;;;;;17.50;11.47;;;11.00;99.90;;;;;;5140152;27;36729;-76
2021/11/12 16:38:18;;;;;;;16.20;10.67;;;11.10;99.90;;;;;;5132742;27;37796;-78
2021/11/12 16:40:49;;;;;;;18.38;11.60;;;11.10;99.90;;;;;;5134014;27;38432;-77
2021/11/12 16:51:07;;;;;;;16.70;11.13;;;11.10;99.90;;;;;;5133856;27;38800;-77
2021/11/12 17:04:23;;;;;;;18.43;12.27;;;10.90;99.90;;;;;;5138937;27;39021;-78
2021/11/12 17:06:57;;;;;;;17.23;12.03;;;10.90;99.90;;;;;;5139050;27;36895;-77
2021/11/12 17:47:13;;;;;;;17.93;12.50;;;10.30;99.90;;;;;;5137108;27;38478;-78
2021/11/12 18:03:23;;;;;;;20.00;11.93;;;10.40;99.90;;;;;;5133498;27;39715;-78
2021/11/12 21:46:25;;;;;;;36.77;23.77;;;10.50;99.90;;;;;;5140087;27;37770;-75
2021/11/12 21:49:00;;;;;;;40.73;25.47;;;10.50;99.90;;;;;;5134481;27;36629;-76
2021/11/12 21:51:29;;;;;;;41.20;24.00;;;10.50;99.90;;;;;;5130783;27;46585;-78
2021/11/12 21:54:01;;;;;;;41.20;25.20;;;10.50;99.90;;;;;;5136952;27;38600;-77
2021/11/12 21:56:29;;;;;;;43.15;25.17;;;10.50;99.90;;;;;;5128190;27;47150;-78
2021/11/12 21:58:55;;;;;;;46.00;26.17;;;10.50;99.90;;;;;;5131584;27;35552;-78
2021/11/12 22:01:24;;;;;;;52.23;27.63;;;10.50;99.90;;;;;;5139429;27;40435;-77
2021/11/12 22:03:50;;;;;;;48.77;28.77;;;10.50;99.90;;;;;;5143367;27;38452;-78
2021/11/12 22:06:16;;;;;;;59.30;30.07;;;10.40;99.90;;;;;;5130833;27;39022;-77
2021/11/12 22:08:42;;;;;;;48.07;26.73;;;10.40;99.90;;;;;;5116584;27;34558;-78
2021/11/12 22:11:09;;;;;;;47.90;28.10;;;10.40;99.90;;;;;;5119858;27;39238;-74
2021/11/12 22:13:38;;;;;;;61.20;30.70;;;10.40;99.90;;;;;;5113694;27;39785;-77
2021/11/12 22:16:12;;;;;;;50.77;29.87;;;10.40;99.90;;;;;;5124181;27;38048;-79
2021/11/12 22:18:39;;;;;;;59.03;29.97;;;10.40;99.90;;;;;;5127502;27;37812;-79
2021/11/12 22:21:06;;;;;;;51.13;27.87;;;10.40;99.90;;;;;;5112946;27;40714;-78
2021/11/12 22:23:33;;;;;;;61.90;30.00;;;10.40;99.90;;;;;;5123173;27;38564;-78
2021/11/12 22:25:59;;;;;;;59.57;29.30;;;10.50;99.90;;;;;;5132896;27;39781;-79
2021/11/12 22:28:26;;;;;;;52.83;29.40;;;10.50;99.90;;;;;;5132772;27;36066;-79
2021/11/12 22:30:53;;;;;;;52.47;28.73;;;10.50;99.90;;;;;;5119989;27;37645;-78
2021/11/12 22:33:20;;;;;;;52.23;29.87;;;10.50;99.90;;;;;;5117614;27;38243;-79
2021/11/12 22:35:47;;;;;;;52.70;30.23;;;10.50;99.90;;;;;;5116597;27;38520;-78
2021/11/12 22:38:15;;;;;;;50.77;29.80;;;10.50;99.90;;;;;;5115319;27;39036;-77
2021/11/12 22:40:45;;;;;;;48.83;28.93;;;10.50;99.90;;;;;;5110713;27;39397;-77
2021/11/12 22:43:12;;;;;;;51.97;30.00;;;10.50;99.90;;;;;;5129296;27;38606;-77
2021/11/12 22:45:38;;;;;;;56.03;31.23;;;10.50;99.90;;;;;;5117241;27;39353;-78
2021/11/12 22:48:05;;;;;;;52.90;28.87;;;10.50;99.90;;;;;;5109986;27;38004;-77
2021/11/12 22:50:31;;;;;;;49.80;30.63;;;10.50;99.90;;;;;;5124213;27;38488;-78
2021/11/12 22:52:58;;;;;;;50.67;29.17;;;10.60;99.90;;;;;;5127629;27;37341;-78
2021/11/12 22:55:24;;;;;;;55.17;30.17;;;10.70;99.90;;;;;;5127097;27;38102;-77
2021/11/12 22:57:50;;;;;;;54.27;30.63;;;10.70;99.90;;;;;;5135810;27;37209;-75
2021/11/12 23:00:26;;;;;;;57.73;30.10;;;10.70;99.90;;;;;;5132803;27;38028;-77